sensor_id;sensor_type;location;lat;lon;timestamp;P1;durP1;ratioP1;P2;durP2;ratioP2
2396;SDS011;1209;48.410;9.054;2023-06-10T00:01:18;10.87;;;8.70;;
2396;SDS011;1209;48.410;9.054;2023-06-10T00:03:43;11.27;;;9.10;;
2396;SDS011;1209;48.410;9.054;2023-06-10T00:06:08;8.00;;;7.17;;
2396;SDS011;1209;48.410;9.054;2023-06-10T00:08:34;9.60;;;8.30;;
2396;SDS011;1209;48.410;9.054;2023-06-10T00:10:59;13.07;;;8.10;;
2396;SDS011;1209;48.410;9.054;2023-06-10T00:13:25;7.40;;;6.70;;
2396;SDS011;1209;48.410;9.054;2023-06-10T00:15:50;8.10;;;6.80;;
2396;SDS011;1209;48.410;9.054;2023-06-10T00:18:15;7.70;;;6.87;;
2396;SDS011;1209;48.410;9.054;2023-06-10T00:20:42;7.10;;;6.40;;
2396;SDS011;1209;48.410;9.054;2023-06-10T00:23:07;7.57;;;6.87;;
2396;SDS011;1209;48.410;9.054;2023-06-10T00:25:34;8.33;;;6.43;;
2396;SDS011;1209;48.410;9.054;2023-06-10T00:27:59;6.57;;;5.97;;
2396;SDS011;1209;48.410;9.054;2023-06-10T00:30:25;6.50;;;5.90;;
2396;SDS011;1209;48.410;9.054;2023-06-10T00:32:50;6.90;;;6.20;;
2396;SDS011;1209;48.410;9.054;2023-06-10T00:35:15;8.10;;;7.30;;
2396;SDS011;1209;48.410;9.054;2023-06-10T00:37:40;6.70;;;6.00;;
2396;SDS011;1209;48.410;9.054;2023-06-10T00:40:06;8.73;;;6.20;;
2396;SDS011;1209;48.410;9.054;2023-06-10T00:42:34;10.50;;;6.40;;
2396;SDS011;1209;48.410;9.054;2023-06-10T00:44:59;8.50;;;6.67;;
2396;SDS011;1209;48.410;9.054;2023-06-10T00:47:25;7.20;;;6.50;;
2396;SDS011;1209;48.410;9.054;2023-06-10T00:49:51;8.37;;;7.10;;
2396;SDS011;1209;48.410;9.054;2023-06-10T00:52:16;8.10;;;7.27;;
2396;SDS011;1209;48.410;9.054;2023-06-10T00:54:44;9.63;;;7.10;;
2396;SDS011;1209;48.410;9.054;2023-06-10T00:57:10;7.13;;;6.43;;
2396;SDS011;1209;48.410;9.054;2023-06-10T00:59:38;7.90;;;6.60;;
2396;SDS011;1209;48.410;9.054;2023-06-10T01:02:04;8.10;;;7.10;;
2396;SDS011;1209;48.410;9.054;2023-06-10T01:04:30;6.97;;;6.23;;
2396;SDS011;1209;48.410;9.054;2023-06-10T01:14:55;6.77;;;6.07;;
2396;SDS011;1209;48.410;9.054;2023-06-10T01:17:21;7.43;;;6.53;;
2396;SDS011;1209;48.410;9.054;2023-06-10T01:19:53;8.23;;;6.43;;
2396;SDS011;1209;48.410;9.054;2023-06-10T01:22:20;7.53;;;6.73;;
2396;SDS011;1209;48.410;9.054;2023-06-10T01:24:47;7.60;;;6.37;;
2396;SDS011;1209;48.410;9.054;2023-06-10T01:27:15;10.47;;;6.97;;
2396;SDS011;1209;48.410;9.054;2023-06-10T01:29:45;7.00;;;6.30;;
2396;SDS011;1209;48.410;9.054;2023-06-10T01:32:21;7.57;;;6.30;;
2396;SDS011;1209;48.410;9.054;2023-06-10T01:34:50;9.60;;;6.80;;
2396;SDS011;1209;48.410;9.054;2023-06-10T01:37:18;6.73;;;6.03;;
2396;SDS011;1209;48.410;9.054;2023-06-10T01:39:47;6.77;;;6.07;;
2396;SDS011;1209;48.410;9.054;2023-06-10T01:42:14;7.33;;;6.63;;
2396;SDS011;1209;48.410;9.054;2023-06-10T01:44:40;7.10;;;6.40;;
2396;SDS011;1209;48.410;9.054;2023-06-10T01:47:06;8.00;;;6.53;;
2396;SDS011;1209;48.410;9.054;2023-06-10T01:49:32;7.87;;;6.87;;
2396;SDS011;1209;48.410;9.054;2023-06-10T01:51:57;15.00;;;7.57;;
2396;SDS011;1209;48.410;9.054;2023-06-10T01:54:23;8.40;;;7.23;;
2396;SDS011;1209;48.410;9.054;2023-06-10T01:56:48;7.80;;;6.80;;
2396;SDS011;1209;48.410;9.054;2023-06-10T01:59:13;8.50;;;7.20;;
2396;SDS011;1209;48.410;9.054;2023-06-10T02:01:38;8.40;;;7.50;;
2396;SDS011;1209;48.410;9.054;2023-06-10T02:04:04;8.10;;;7.30;;
2396;SDS011;1209;48.410;9.054;2023-06-10T02:06:29;7.60;;;6.40;;
2396;SDS011;1209;48.410;9.054;2023-06-10T02:08:55;7.70;;;7.00;;
2396;SDS011;1209;48.410;9.054;2023-06-10T02:11:20;8.33;;;6.90;;
2396;SDS011;1209;48.410;9.054;2023-06-10T02:13:45;8.57;;;7.20;;
2396;SDS011;1209;48.410;9.054;2023-06-10T02:16:10;9.13;;;7.47;;
2396;SDS011;1209;48.410;9.054;2023-06-10T02:18:37;8.27;;;7.33;;
2396;SDS011;1209;48.410;9.054;2023-06-10T02:21:03;7.97;;;7.20;;
2396;SDS011;1209;48.410;9.054;2023-06-10T02:23:28;8.00;;;7.27;;
2396;SDS011;1209;48.410;9.054;2023-06-10T02:25:53;8.93;;;7.13;;
2396;SDS011;1209;48.410;9.054;2023-06-10T02:28:19;9.00;;;7.10;;
2396;SDS011;1209;48.410;9.054;2023-06-10T02:30:44;9.33;;;7.60;;
2396;SDS011;1209;48.410;9.054;2023-06-10T02:33:11;8.27;;;7.10;;
2396;SDS011;1209;48.410;9.054;2023-06-10T02:35:40;8.10;;;7.17;;
2396;SDS011;1209;48.410;9.054;2023-06-10T02:38:05;8.63;;;7.23;;
2396;SDS011;1209;48.410;9.054;2023-06-10T02:40:30;7.93;;;7.13;;
2396;SDS011;1209;48.410;9.054;2023-06-10T02:42:56;9.63;;;8.27;;
2396;SDS011;1209;48.410;9.054;2023-06-10T02:45:22;7.63;;;6.77;;
2396;SDS011;1209;48.410;9.054;2023-06-10T02:47:47;8.70;;;7.87;;
2396;SDS011;1209;48.410;9.054;2023-06-10T02:50:12;7.53;;;6.73;;
2396;SDS011;1209;48.410;9.054;2023-06-10T02:52:38;8.40;;;7.03;;
2396;SDS011;1209;48.410;9.054;2023-06-10T02:55:03;7.70;;;6.60;;
2396;SDS011;1209;48.410;9.054;2023-06-10T02:57:29;7.93;;;7.13;;
2396;SDS011;1209;48.410;9.054;2023-06-10T02:59:54;9.33;;;7.03;;
2396;SDS011;1209;48.410;9.054;2023-06-10T03:02:19;12.30;;;7.33;;
2396;SDS011;1209;48.410;9.054;2023-06-10T03:04:45;8.13;;;7.33;;
2396;SDS011;1209;48.410;9.054;2023-06-10T03:07:10;8.00;;;6.77;;
2396;SDS011;1209;48.410;9.054;2023-06-10T03:09:36;7.47;;;6.67;;
2396;SDS011;1209;48.410;9.054;2023-06-10T03:12:01;8.53;;;7.23;;
2396;SDS011;1209;48.410;9.054;2023-06-10T03:14:27;9.97;;;7.60;;
2396;SDS011;1209;48.410;9.054;2023-06-10T03:16:52;7.43;;;5.80;;
2396;SDS011;1209;48.410;9.054;2023-06-10T03:19:18;8.37;;;7.20;;
2396;SDS011;1209;48.410;9.054;2023-06-10T03:21:44;6.90;;;6.20;;
2396;SDS011;1209;48.410;9.054;2023-06-10T03:24:09;8.20;;;7.27;;
2396;SDS011;1209;48.410;9.054;2023-06-10T03:26:35;8.00;;;6.67;;
2396;SDS011;1209;48.410;9.054;2023-06-10T03:29:01;8.80;;;7.40;;
2396;SDS011;1209;48.410;9.054;2023-06-10T03:31:26;8.27;;;7.40;;
2396;SDS011;1209;48.410;9.054;2023-06-10T03:33:51;7.57;;;6.87;;
2396;SDS011;1209;48.410;9.054;2023-06-10T03:36:17;9.23;;;6.77;;
2396;SDS011;1209;48.410;9.054;2023-06-10T03:38:42;8.63;;;7.17;;
2396;SDS011;1209;48.410;9.054;2023-06-10T03:41:07;7.57;;;6.73;;
2396;SDS011;1209;48.410;9.054;2023-06-10T03:43:32;8.30;;;7.50;;
2396;SDS011;1209;48.410;9.054;2023-06-10T03:45:58;7.87;;;7.07;;
2396;SDS011;1209;48.410;9.054;2023-06-10T03:48:23;7.93;;;6.50;;
2396;SDS011;1209;48.410;9.054;2023-06-10T03:50:49;6.87;;;6.17;;
2396;SDS011;1209;48.410;9.054;2023-06-10T03:53:16;7.53;;;6.53;;
2396;SDS011;1209;48.410;9.054;2023-06-10T03:55:41;9.23;;;7.60;;
2396;SDS011;1209;48.410;9.054;2023-06-10T03:58:06;6.87;;;6.17;;
2396;SDS011;1209;48.410;9.054;2023-06-10T04:00:32;7.30;;;6.47;;
2396;SDS011;1209;48.410;9.054;2023-06-10T04:03:07;8.90;;;6.67;;
2396;SDS011;1209;48.410;9.054;2023-06-10T04:05:34;7.83;;;6.70;;
2396;SDS011;1209;48.410;9.054;2023-06-10T04:07:59;7.23;;;6.53;;
2396;SDS011;1209;48.410;9.054;2023-06-10T04:10:26;7.90;;;6.30;;
2396;SDS011;1209;48.410;9.054;2023-06-10T04:12:51;8.93;;;6.40;;
2396;SDS011;1209;48.410;9.054;2023-06-10T04:15:17;9.53;;;6.47;;
2396;SDS011;1209;48.410;9.054;2023-06-10T04:17:42;8.87;;;6.53;;
2396;SDS011;1209;48.410;9.054;2023-06-10T04:20:08;8.13;;;6.93;;
2396;SDS011;1209;48.410;9.054;2023-06-10T04:22:33;7.40;;;6.60;;
2396;SDS011;1209;48.410;9.054;2023-06-10T04:24:58;7.70;;;6.77;;
2396;SDS011;1209;48.410;9.054;2023-06-10T04:27:24;10.40;;;7.40;;
2396;SDS011;1209;48.410;9.054;2023-06-10T04:29:49;7.57;;;6.70;;
2396;SDS011;1209;48.410;9.054;2023-06-10T04:32:14;9.47;;;7.30;;
2396;SDS011;1209;48.410;9.054;2023-06-10T04:34:40;7.37;;;6.40;;
2396;SDS011;1209;48.410;9.054;2023-06-10T04:37:05;7.17;;;6.40;;
2396;SDS011;1209;48.410;9.054;2023-06-10T04:39:31;7.80;;;6.40;;
2396;SDS011;1209;48.410;9.054;2023-06-10T04:41:57;9.83;;;6.80;;
2396;SDS011;1209;48.410;9.054;2023-06-10T04:44:22;8.77;;;6.90;;
2396;SDS011;1209;48.410;9.054;2023-06-10T04:46:47;6.93;;;6.23;;
2396;SDS011;1209;48.410;9.054;2023-06-10T04:49:13;7.73;;;6.30;;
2396;SDS011;1209;48.410;9.054;2023-06-10T04:51:39;7.80;;;6.43;;
2396;SDS011;1209;48.410;9.054;2023-06-10T04:54:04;8.40;;;6.20;;
2396;SDS011;1209;48.410;9.054;2023-06-10T04:56:30;10.13;;;7.90;;
2396;SDS011;1209;48.410;9.054;2023-06-10T04:58:56;8.03;;;7.23;;
2396;SDS011;1209;48.410;9.054;2023-06-10T05:01:25;7.40;;;6.07;;
2396;SDS011;1209;48.410;9.054;2023-06-10T05:03:50;8.40;;;6.27;;
2396;SDS011;1209;48.410;9.054;2023-06-10T05:06:15;9.17;;;7.47;;
2396;SDS011;1209;48.410;9.054;2023-06-10T05:08:41;9.37;;;6.80;;
2396;SDS011;1209;48.410;9.054;2023-06-10T05:11:06;8.73;;;7.10;;
2396;SDS011;1209;48.410;9.054;2023-06-10T05:13:32;8.10;;;6.63;;
2396;SDS011;1209;48.410;9.054;2023-06-10T05:15:57;6.87;;;6.20;;
2396;SDS011;1209;48.410;9.054;2023-06-10T05:18:23;7.73;;;6.40;;
2396;SDS011;1209;48.410;9.054;2023-06-10T05:20:48;7.20;;;6.50;;
2396;SDS011;1209;48.410;9.054;2023-06-10T05:23:14;7.90;;;7.10;;
2396;SDS011;1209;48.410;9.054;2023-06-10T05:25:39;8.60;;;7.10;;
2396;SDS011;1209;48.410;9.054;2023-06-10T05:28:04;7.40;;;6.27;;
2396;SDS011;1209;48.410;9.054;2023-06-10T05:30:31;7.53;;;6.73;;
2396;SDS011;1209;48.410;9.054;2023-06-10T05:32:56;8.77;;;7.13;;
2396;SDS011;1209;48.410;9.054;2023-06-10T05:35:22;8.67;;;7.13;;
2396;SDS011;1209;48.410;9.054;2023-06-10T05:37:47;8.07;;;6.53;;
2396;SDS011;1209;48.410;9.054;2023-06-10T05:40:13;9.43;;;7.23;;
2396;SDS011;1209;48.410;9.054;2023-06-10T05:42:38;8.17;;;7.30;;
2396;SDS011;1209;48.410;9.054;2023-06-10T05:45:05;12.20;;;8.30;;
2396;SDS011;1209;48.410;9.054;2023-06-10T05:47:31;8.00;;;7.20;;
2396;SDS011;1209;48.410;9.054;2023-06-10T05:49:56;8.73;;;7.83;;
2396;SDS011;1209;48.410;9.054;2023-06-10T05:52:21;9.73;;;7.83;;
2396;SDS011;1209;48.410;9.054;2023-06-10T05:54:48;9.67;;;8.67;;
2396;SDS011;1209;48.410;9.054;2023-06-10T05:57:14;9.63;;;8.27;;
2396;SDS011;1209;48.410;9.054;2023-06-10T05:59:39;9.27;;;8.30;;
2396;SDS011;1209;48.410;9.054;2023-06-10T06:02:05;12.10;;;8.50;;
2396;SDS011;1209;48.410;9.054;2023-06-10T06:04:30;8.70;;;7.90;;
2396;SDS011;1209;48.410;9.054;2023-06-10T06:06:55;8.63;;;7.73;;
2396;SDS011;1209;48.410;9.054;2023-06-10T06:09:21;9.57;;;8.60;;
2396;SDS011;1209;48.410;9.054;2023-06-10T06:11:46;11.23;;;8.27;;
2396;SDS011;1209;48.410;9.054;2023-06-10T06:14:11;9.80;;;8.80;;
2396;SDS011;1209;48.410;9.054;2023-06-10T06:16:37;10.00;;;8.77;;
2396;SDS011;1209;48.410;9.054;2023-06-10T06:19:02;10.33;;;9.33;;
2396;SDS011;1209;48.410;9.054;2023-06-10T06:21:27;10.63;;;8.73;;
2396;SDS011;1209;48.410;9.054;2023-06-10T06:23:52;13.87;;;11.20;;
2396;SDS011;1209;48.410;9.054;2023-06-10T06:26:18;9.27;;;8.33;;
2396;SDS011;1209;48.410;9.054;2023-06-10T06:28:43;9.83;;;8.73;;
2396;SDS011;1209;48.410;9.054;2023-06-10T06:31:08;10.00;;;8.40;;
2396;SDS011;1209;48.410;9.054;2023-06-10T06:33:34;8.20;;;7.37;;
2396;SDS011;1209;48.410;9.054;2023-06-10T06:35:59;7.40;;;6.43;;
2396;SDS011;1209;48.410;9.054;2023-06-10T06:38:25;11.37;;;9.53;;
2396;SDS011;1209;48.410;9.054;2023-06-10T06:40:51;9.83;;;8.00;;
2396;SDS011;1209;48.410;9.054;2023-06-10T06:43:16;10.23;;;9.13;;
2396;SDS011;1209;48.410;9.054;2023-06-10T06:45:43;11.50;;;8.33;;
2396;SDS011;1209;48.410;9.054;2023-06-10T06:48:08;10.57;;;8.47;;
2396;SDS011;1209;48.410;9.054;2023-06-10T06:50:34;10.63;;;8.43;;
2396;SDS011;1209;48.410;9.054;2023-06-10T06:52:59;10.47;;;8.17;;
2396;SDS011;1209;48.410;9.054;2023-06-10T06:55:25;12.83;;;9.10;;
2396;SDS011;1209;48.410;9.054;2023-06-10T06:57:50;8.77;;;7.33;;
2396;SDS011;1209;48.410;9.054;2023-06-10T07:00:15;14.43;;;9.93;;
2396;SDS011;1209;48.410;9.054;2023-06-10T07:02:41;9.60;;;8.60;;
2396;SDS011;1209;48.410;9.054;2023-06-10T07:05:06;8.70;;;7.80;;
2396;SDS011;1209;48.410;9.054;2023-06-10T07:07:32;9.73;;;7.80;;
2396;SDS011;1209;48.410;9.054;2023-06-10T07:09:57;8.80;;;7.70;;
2396;SDS011;1209;48.410;9.054;2023-06-10T07:12:22;10.63;;;7.30;;
2396;SDS011;1209;48.410;9.054;2023-06-10T07:14:49;8.37;;;7.47;;
2396;SDS011;1209;48.410;9.054;2023-06-10T07:17:15;8.57;;;7.60;;
2396;SDS011;1209;48.410;9.054;2023-06-10T07:19:42;9.50;;;8.33;;
2396;SDS011;1209;48.410;9.054;2023-06-10T07:22:07;9.27;;;7.70;;
2396;SDS011;1209;48.410;9.054;2023-06-10T07:24:33;9.20;;;8.07;;
2396;SDS011;1209;48.410;9.054;2023-06-10T07:26:58;11.60;;;8.17;;
2396;SDS011;1209;48.410;9.054;2023-06-10T07:29:24;8.90;;;7.53;;
2396;SDS011;1209;48.410;9.054;2023-06-10T07:31:49;12.13;;;9.40;;
2396;SDS011;1209;48.410;9.054;2023-06-10T07:34:14;11.20;;;9.30;;
2396;SDS011;1209;48.410;9.054;2023-06-10T07:36:39;10.33;;;8.70;;
2396;SDS011;1209;48.410;9.054;2023-06-10T07:39:05;8.30;;;7.50;;
2396;SDS011;1209;48.410;9.054;2023-06-10T07:41:30;9.73;;;8.40;;
2396;SDS011;1209;48.410;9.054;2023-06-10T07:43:56;7.83;;;7.03;;
2396;SDS011;1209;48.410;9.054;2023-06-10T07:46:22;10.10;;;8.17;;
2396;SDS011;1209;48.410;9.054;2023-06-10T07:48:48;9.87;;;7.10;;
2396;SDS011;1209;48.410;9.054;2023-06-10T07:51:14;9.80;;;7.40;;
2396;SDS011;1209;48.410;9.054;2023-06-10T07:53:41;8.80;;;7.53;;
2396;SDS011;1209;48.410;9.054;2023-06-10T07:56:06;8.50;;;7.60;;
2396;SDS011;1209;48.410;9.054;2023-06-10T07:58:31;7.67;;;6.87;;
2396;SDS011;1209;48.410;9.054;2023-06-10T08:00:57;7.83;;;6.97;;
2396;SDS011;1209;48.410;9.054;2023-06-10T08:03:22;13.60;;;7.13;;
2396;SDS011;1209;48.410;9.054;2023-06-10T08:05:47;7.33;;;6.63;;
2396;SDS011;1209;48.410;9.054;2023-06-10T08:08:13;9.77;;;7.77;;
2396;SDS011;1209;48.410;9.054;2023-06-10T08:10:38;9.20;;;7.20;;
2396;SDS011;1209;48.410;9.054;2023-06-10T08:13:03;7.67;;;6.30;;
2396;SDS011;1209;48.410;9.054;2023-06-10T08:15:29;7.33;;;6.67;;
2396;SDS011;1209;48.410;9.054;2023-06-10T08:17:54;7.33;;;6.63;;
2396;SDS011;1209;48.410;9.054;2023-06-10T08:20:19;7.60;;;6.63;;
2396;SDS011;1209;48.410;9.054;2023-06-10T08:22:44;7.60;;;6.80;;
2396;SDS011;1209;48.410;9.054;2023-06-10T08:25:10;9.40;;;6.70;;
2396;SDS011;1209;48.410;9.054;2023-06-10T08:27:35;8.07;;;6.57;;
2396;SDS011;1209;48.410;9.054;2023-06-10T08:30:00;8.63;;;6.87;;
2396;SDS011;1209;48.410;9.054;2023-06-10T08:32:26;7.97;;;7.13;;
2396;SDS011;1209;48.410;9.054;2023-06-10T08:34:51;7.60;;;5.90;;
2396;SDS011;1209;48.410;9.054;2023-06-10T08:37:17;6.60;;;5.80;;
2396;SDS011;1209;48.410;9.054;2023-06-10T08:39:42;9.90;;;6.97;;
2396;SDS011;1209;48.410;9.054;2023-06-10T08:42:11;7.60;;;6.47;;
2396;SDS011;1209;48.410;9.054;2023-06-10T08:44:40;7.30;;;5.70;;
2396;SDS011;1209;48.410;9.054;2023-06-10T08:47:16;7.53;;;6.10;;
2396;SDS011;1209;48.410;9.054;2023-06-10T08:49:45;6.70;;;5.57;;
2396;SDS011;1209;48.410;9.054;2023-06-10T08:52:14;7.30;;;5.90;;
2396;SDS011;1209;48.410;9.054;2023-06-10T08:54:42;6.67;;;6.00;;
2396;SDS011;1209;48.410;9.054;2023-06-10T08:57:28;7.73;;;5.70;;
2396;SDS011;1209;48.410;9.054;2023-06-10T08:59:55;10.17;;;5.30;;
2396;SDS011;1209;48.410;9.054;2023-06-10T09:02:22;5.43;;;4.93;;
2396;SDS011;1209;48.410;9.054;2023-06-10T09:04:49;5.93;;;5.37;;
2396;SDS011;1209;48.410;9.054;2023-06-10T09:07:15;6.90;;;6.07;;
2396;SDS011;1209;48.410;9.054;2023-06-10T09:09:44;6.37;;;4.93;;
2396;SDS011;1209;48.410;9.054;2023-06-10T09:12:10;6.93;;;6.33;;
2396;SDS011;1209;48.410;9.054;2023-06-10T09:14:38;5.50;;;5.00;;
2396;SDS011;1209;48.410;9.054;2023-06-10T09:17:03;7.77;;;5.60;;
2396;SDS011;1209;48.410;9.054;2023-06-10T09:19:30;5.90;;;5.10;;
2396;SDS011;1209;48.410;9.054;2023-06-10T09:21:55;5.90;;;5.30;;
2396;SDS011;1209;48.410;9.054;2023-06-10T09:24:22;5.60;;;5.10;;
2396;SDS011;1209;48.410;9.054;2023-06-10T09:26:48;6.20;;;5.60;;
2396;SDS011;1209;48.410;9.054;2023-06-10T09:29:14;5.87;;;5.37;;
2396;SDS011;1209;48.410;9.054;2023-06-10T09:31:39;6.37;;;5.50;;
2396;SDS011;1209;48.410;9.054;2023-06-10T09:34:09;6.07;;;5.57;;
2396;SDS011;1209;48.410;9.054;2023-06-10T09:36:38;7.07;;;6.20;;
2396;SDS011;1209;48.410;9.054;2023-06-10T09:39:05;6.10;;;5.60;;
2396;SDS011;1209;48.410;9.054;2023-06-10T09:41:42;6.97;;;6.27;;
2396;SDS011;1209;48.410;9.054;2023-06-10T09:44:21;6.27;;;5.67;;
2396;SDS011;1209;48.410;9.054;2023-06-10T09:46:47;5.80;;;5.30;;
2396;SDS011;1209;48.410;9.054;2023-06-10T09:49:15;6.67;;;5.47;;
2396;SDS011;1209;48.410;9.054;2023-06-10T09:51:59;5.00;;;4.50;;
2396;SDS011;1209;48.410;9.054;2023-06-10T09:54:24;5.57;;;5.07;;
2396;SDS011;1209;48.410;9.054;2023-06-10T09:56:57;5.53;;;5.10;;
2396;SDS011;1209;48.410;9.054;2023-06-10T09:59:29;6.00;;;5.40;;
2396;SDS011;1209;48.410;9.054;2023-06-10T10:01:56;5.20;;;4.60;;
2396;SDS011;1209;48.410;9.054;2023-06-10T10:04:25;5.43;;;4.93;;
2396;SDS011;1209;48.410;9.054;2023-06-10T10:06:51;5.10;;;4.60;;
2396;SDS011;1209;48.410;9.054;2023-06-10T10:09:16;7.33;;;4.97;;
2396;SDS011;1209;48.410;9.054;2023-06-10T10:11:42;6.17;;;5.60;;
2396;SDS011;1209;48.410;9.054;2023-06-10T10:14:09;4.30;;;3.90;;
2396;SDS011;1209;48.410;9.054;2023-06-10T10:16:39;5.50;;;5.00;;
2396;SDS011;1209;48.410;9.054;2023-06-10T10:19:18;5.37;;;4.37;;
2396;SDS011;1209;48.410;9.054;2023-06-10T10:22:11;7.13;;;3.73;;
2396;SDS011;1209;48.410;9.054;2023-06-10T10:24:41;3.30;;;3.10;;
2396;SDS011;1209;48.410;9.054;2023-06-10T10:27:14;3.00;;;2.70;;
2396;SDS011;1209;48.410;9.054;2023-06-10T10:29:44;3.90;;;3.60;;
2396;SDS011;1209;48.410;9.054;2023-06-10T10:32:12;3.40;;;3.13;;
2396;SDS011;1209;48.410;9.054;2023-06-10T10:37:17;3.63;;;3.33;;
2396;SDS011;1209;48.410;9.054;2023-06-10T10:39:44;3.23;;;2.93;;
2396;SDS011;1209;48.410;9.054;2023-06-10T10:42:09;2.90;;;2.70;;
2396;SDS011;1209;48.410;9.054;2023-06-10T10:44:37;4.00;;;3.60;;
2396;SDS011;1209;48.410;9.054;2023-06-10T10:47:03;3.53;;;3.23;;
2396;SDS011;1209;48.410;9.054;2023-06-10T10:49:32;3.70;;;3.40;;
2396;SDS011;1209;48.410;9.054;2023-06-10T10:52:01;3.27;;;3.07;;
2396;SDS011;1209;48.410;9.054;2023-06-10T10:54:36;4.23;;;3.93;;
2396;SDS011;1209;48.410;9.054;2023-06-10T11:04:46;4.17;;;3.80;;
2396;SDS011;1209;48.410;9.054;2023-06-10T11:07:12;3.97;;;3.67;;
2396;SDS011;1209;48.410;9.054;2023-06-10T11:09:59;4.23;;;3.83;;
2396;SDS011;1209;48.410;9.054;2023-06-10T11:15:18;4.10;;;3.80;;
2396;SDS011;1209;48.410;9.054;2023-06-10T11:31:19;5.73;;;5.23;;
2396;SDS011;1209;48.410;9.054;2023-06-10T11:33:51;4.33;;;3.93;;
2396;SDS011;1209;48.410;9.054;2023-06-10T11:36:21;4.70;;;4.20;;
2396;SDS011;1209;48.410;9.054;2023-06-10T11:38:48;5.20;;;4.60;;
2396;SDS011;1209;48.410;9.054;2023-06-10T11:41:14;5.27;;;4.77;;
2396;SDS011;1209;48.410;9.054;2023-06-10T11:43:43;4.90;;;4.40;;
2396;SDS011;1209;48.410;9.054;2023-06-10T11:46:09;8.03;;;4.80;;
2396;SDS011;1209;48.410;9.054;2023-06-10T11:48:35;11.53;;;4.73;;
2396;SDS011;1209;48.410;9.054;2023-06-10T11:51:00;6.40;;;4.40;;
2396;SDS011;1209;48.410;9.054;2023-06-10T11:53:31;5.03;;;4.63;;
2396;SDS011;1209;48.410;9.054;2023-06-10T11:55:56;7.10;;;4.20;;
2396;SDS011;1209;48.410;9.054;2023-06-10T11:58:22;4.63;;;4.23;;
2396;SDS011;1209;48.410;9.054;2023-06-10T12:00:47;5.80;;;5.30;;
2396;SDS011;1209;48.410;9.054;2023-06-10T12:03:14;7.07;;;4.63;;
2396;SDS011;1209;48.410;9.054;2023-06-10T12:05:40;4.80;;;4.40;;
2396;SDS011;1209;48.410;9.054;2023-06-10T12:08:08;4.97;;;4.57;;
2396;SDS011;1209;48.410;9.054;2023-06-10T12:10:39;4.53;;;4.23;;
2396;SDS011;1209;48.410;9.054;2023-06-10T12:13:06;5.20;;;4.70;;
2396;SDS011;1209;48.410;9.054;2023-06-10T12:15:31;4.63;;;4.23;;
2396;SDS011;1209;48.410;9.054;2023-06-10T12:17:57;4.87;;;4.43;;
2396;SDS011;1209;48.410;9.054;2023-06-10T12:20:26;6.83;;;5.17;;
2396;SDS011;1209;48.410;9.054;2023-06-10T12:22:53;5.20;;;4.70;;
2396;SDS011;1209;48.410;9.054;2023-06-10T12:25:23;4.93;;;4.43;;
2396;SDS011;1209;48.410;9.054;2023-06-10T12:27:54;4.63;;;4.27;;
2396;SDS011;1209;48.410;9.054;2023-06-10T12:30:23;5.07;;;4.67;;
2396;SDS011;1209;48.410;9.054;2023-06-10T12:32:51;3.93;;;3.63;;
2396;SDS011;1209;48.410;9.054;2023-06-10T12:35:19;4.87;;;4.47;;
2396;SDS011;1209;48.410;9.054;2023-06-10T12:38:03;5.27;;;4.77;;
2396;SDS011;1209;48.410;9.054;2023-06-10T12:40:32;5.80;;;4.80;;
2396;SDS011;1209;48.410;9.054;2023-06-10T12:42:59;5.10;;;4.60;;
2396;SDS011;1209;48.410;9.054;2023-06-10T12:45:31;5.20;;;4.70;;
2396;SDS011;1209;48.410;9.054;2023-06-10T12:48:08;4.37;;;4.07;;
2396;SDS011;1209;48.410;9.054;2023-06-10T12:50:38;4.63;;;4.23;;
2396;SDS011;1209;48.410;9.054;2023-06-10T12:53:04;7.40;;;4.10;;
2396;SDS011;1209;48.410;9.054;2023-06-10T12:55:29;4.60;;;4.20;;
2396;SDS011;1209;48.410;9.054;2023-06-10T12:57:55;4.70;;;4.30;;
2396;SDS011;1209;48.410;9.054;2023-06-10T13:00:21;5.17;;;4.67;;
2396;SDS011;1209;48.410;9.054;2023-06-10T13:02:48;4.83;;;4.40;;
2396;SDS011;1209;48.410;9.054;2023-06-10T13:05:15;6.70;;;5.97;;
2396;SDS011;1209;48.410;9.054;2023-06-10T13:07:43;5.00;;;4.50;;
2396;SDS011;1209;48.410;9.054;2023-06-10T13:10:09;4.80;;;4.40;;
2396;SDS011;1209;48.410;9.054;2023-06-10T13:12:35;4.80;;;4.40;;
2396;SDS011;1209;48.410;9.054;2023-06-10T13:15:01;4.10;;;3.70;;
2396;SDS011;1209;48.410;9.054;2023-06-10T13:17:27;4.30;;;3.90;;
2396;SDS011;1209;48.410;9.054;2023-06-10T13:19:52;4.20;;;3.80;;
2396;SDS011;1209;48.410;9.054;2023-06-10T13:22:18;4.67;;;4.27;;
2396;SDS011;1209;48.410;9.054;2023-06-10T13:24:45;5.03;;;4.60;;
2396;SDS011;1209;48.410;9.054;2023-06-10T13:27:10;4.47;;;4.17;;
2396;SDS011;1209;48.410;9.054;2023-06-10T13:29:36;4.73;;;4.33;;
2396;SDS011;1209;48.410;9.054;2023-06-10T13:32:01;4.70;;;4.30;;
2396;SDS011;1209;48.410;9.054;2023-06-10T13:34:27;4.80;;;4.40;;
2396;SDS011;1209;48.410;9.054;2023-06-10T13:36:53;7.17;;;4.67;;
2396;SDS011;1209;48.410;9.054;2023-06-10T13:39:18;4.27;;;3.93;;
2396;SDS011;1209;48.410;9.054;2023-06-10T13:41:43;5.00;;;4.60;;
2396;SDS011;1209;48.410;9.054;2023-06-10T13:44:09;5.37;;;4.87;;
2396;SDS011;1209;48.410;9.054;2023-06-10T13:46:34;4.37;;;4.03;;
2396;SDS011;1209;48.410;9.054;2023-06-10T13:49:00;4.63;;;4.23;;
2396;SDS011;1209;48.410;9.054;2023-06-10T13:51:25;5.93;;;5.33;;
2396;SDS011;1209;48.410;9.054;2023-06-10T13:53:50;7.83;;;3.97;;
2396;SDS011;1209;48.410;9.054;2023-06-10T13:56:17;4.50;;;4.10;;
2396;SDS011;1209;48.410;9.054;2023-06-10T13:58:42;4.37;;;3.97;;
2396;SDS011;1209;48.410;9.054;2023-06-10T14:01:08;4.33;;;3.97;;
2396;SDS011;1209;48.410;9.054;2023-06-10T14:03:33;4.63;;;4.33;;
2396;SDS011;1209;48.410;9.054;2023-06-10T14:05:59;4.17;;;3.87;;
2396;SDS011;1209;48.410;9.054;2023-06-10T14:08:24;4.60;;;4.30;;
2396;SDS011;1209;48.410;9.054;2023-06-10T14:10:49;4.27;;;3.90;;
2396;SDS011;1209;48.410;9.054;2023-06-10T14:13:16;3.90;;;3.60;;
2396;SDS011;1209;48.410;9.054;2023-06-10T14:15:42;4.77;;;4.27;;
2396;SDS011;1209;48.410;9.054;2023-06-10T14:18:07;5.20;;;4.37;;
2396;SDS011;1209;48.410;9.054;2023-06-10T14:20:33;4.27;;;3.93;;
2396;SDS011;1209;48.410;9.054;2023-06-10T14:22:58;3.40;;;3.20;;
2396;SDS011;1209;48.410;9.054;2023-06-10T14:25:24;5.00;;;4.27;;
2396;SDS011;1209;48.410;9.054;2023-06-10T14:27:50;4.13;;;3.80;;
2396;SDS011;1209;48.410;9.054;2023-06-10T14:30:15;4.47;;;4.17;;
2396;SDS011;1209;48.410;9.054;2023-06-10T14:32:41;11.90;;;4.00;;
2396;SDS011;1209;48.410;9.054;2023-06-10T14:35:07;4.00;;;3.60;;
2396;SDS011;1209;48.410;9.054;2023-06-10T14:37:32;4.40;;;4.00;;
2396;SDS011;1209;48.410;9.054;2023-06-10T14:39:57;4.13;;;3.83;;
2396;SDS011;1209;48.410;9.054;2023-06-10T14:42:23;4.70;;;4.30;;
2396;SDS011;1209;48.410;9.054;2023-06-10T14:44:48;4.07;;;3.77;;
2396;SDS011;1209;48.410;9.054;2023-06-10T14:47:14;4.20;;;3.90;;
2396;SDS011;1209;48.410;9.054;2023-06-10T14:49:40;4.17;;;3.80;;
2396;SDS011;1209;48.410;9.054;2023-06-10T14:52:07;3.90;;;3.60;;
2396;SDS011;1209;48.410;9.054;2023-06-10T14:54:32;4.60;;;4.20;;
2396;SDS011;1209;48.410;9.054;2023-06-10T14:56:58;3.83;;;3.53;;
2396;SDS011;1209;48.410;9.054;2023-06-10T14:59:23;4.57;;;4.17;;
2396;SDS011;1209;48.410;9.054;2023-06-10T15:01:48;4.37;;;3.97;;
2396;SDS011;1209;48.410;9.054;2023-06-10T15:04:14;5.40;;;4.90;;
2396;SDS011;1209;48.410;9.054;2023-06-10T15:06:39;4.00;;;3.70;;
2396;SDS011;1209;48.410;9.054;2023-06-10T15:09:04;3.77;;;3.47;;
2396;SDS011;1209;48.410;9.054;2023-06-10T15:11:30;3.67;;;3.37;;
2396;SDS011;1209;48.410;9.054;2023-06-10T15:13:55;3.77;;;3.40;;
2396;SDS011;1209;48.410;9.054;2023-06-10T15:16:20;4.27;;;3.87;;
2396;SDS011;1209;48.410;9.054;2023-06-10T15:18:46;8.47;;;3.90;;
2396;SDS011;1209;48.410;9.054;2023-06-10T15:21:11;4.50;;;4.10;;
2396;SDS011;1209;48.410;9.054;2023-06-10T15:23:36;3.83;;;3.57;;
2396;SDS011;1209;48.410;9.054;2023-06-10T15:26:01;4.07;;;3.77;;
2396;SDS011;1209;48.410;9.054;2023-06-10T15:28:27;4.00;;;3.70;;
2396;SDS011;1209;48.410;9.054;2023-06-10T15:30:52;4.30;;;3.90;;
2396;SDS011;1209;48.410;9.054;2023-06-10T15:33:17;4.70;;;4.20;;
2396;SDS011;1209;48.410;9.054;2023-06-10T15:35:43;4.80;;;4.40;;
2396;SDS011;1209;48.410;9.054;2023-06-10T15:38:08;4.20;;;3.80;;
2396;SDS011;1209;48.410;9.054;2023-06-10T15:40:33;4.23;;;3.93;;
2396;SDS011;1209;48.410;9.054;2023-06-10T15:43:00;4.30;;;3.93;;
2396;SDS011;1209;48.410;9.054;2023-06-10T15:45:25;4.37;;;3.97;;